메인 페이지
METAR-TAF:

METAR-TAF

공항 :

레스보스 섬, 그리스

위도: 39-04N, 경도: 026-36E, 고도: 3m

현재 날씨관측

예보는 38분 전, 18:50시(UTC)에 발표되었습니다.
여러 방향의 바람 3kt
온도 22°C
습도 60%
기압 1013 hPa
시정 10km 이상
고도 3000ft 상공 구름 조금

METAR: LGMT 251850Z VRB03KT 9999 FEW030 22/14 Q1013

시각: 21:28 (19:28 UTC)

예보

예보는 2 시간 28분 전, 17:00시(UTC)에 발표되었습니다.
예보 대상 시간: 25일 18시부터 26일 03시까지 (UTC)
남남서8kt
시정 10km 이상
고도 1800ft 상공 구름 조금
전환 중
25일 22시부터 25일 24시까지 (UTC)
여러 방향의 바람 3kt
고도 1200ft 상공 구름 보통
고도 2000ft 상공 구름 보통
확률 30%
26일 00시부터 26일 03시까지 (UTC)
시정: 5000m
고도 1200ft 상공 구름 많음
박무

TAF: LGMT 251700Z 2518/2603 20008KT 9999 FEW018 BECMG 2522/2524 VRB03KT SCT012 SCT020 PROB30 2600/2603 5000 BR BKN012

4,000개 이상의 공항 관측 자료 및 예보 (METAR 및 TAF 보고).

지도상에서 검색 가능한 기상관측소가 노란 점과 빨간 점으로 표시되어 있습니다.

기상관측소 명을 보려면 표시 위로 마우스를 이동하세요.

날씨 관측과 예보를 보려면 클릭하세요.

지도 변경 : 확대하려면 엑스 표시가 있는 녹색 버튼, 축소하려면 빼기 표시가 있는 녹색 버튼, 다음 페이지의 지도를 보려면 녹색 화살표를 클릭하세요.


METAR-TAF: